sensor_id;sensor_type;location;lat;lon;timestamp;temperature;humidity
71039;SHT30;58692;43.212;27.908;2023-03-14T00:00:59;5.26;71.65
71039;SHT30;58692;43.212;27.908;2023-03-14T00:03:25;5.04;72.30
71039;SHT30;58692;43.212;27.908;2023-03-14T00:05:50;5.06;72.39
71039;SHT30;58692;43.212;27.908;2023-03-14T00:08:16;5.04;72.44
71039;SHT30;58692;43.212;27.908;2023-03-14T00:10:43;5.00;72.58
71039;SHT30;58692;43.212;27.908;2023-03-14T00:13:09;5.03;72.45
71039;SHT30;58692;43.212;27.908;2023-03-14T00:15:34;4.97;72.69
71039;SHT30;58692;43.212;27.908;2023-03-14T00:18:00;5.06;72.45
71039;SHT30;58692;43.212;27.908;2023-03-14T00:20:26;5.06;72.28
71039;SHT30;58692;43.212;27.908;2023-03-14T00:22:51;5.19;71.94
71039;SHT30;58692;43.212;27.908;2023-03-14T00:25:19;5.13;72.18
71039;SHT30;58692;43.212;27.908;2023-03-14T00:27:44;5.19;72.03
71039;SHT30;58692;43.212;27.908;2023-03-14T00:30:10;5.14;72.30
71039;SHT30;58692;43.212;27.908;2023-03-14T00:32:36;5.11;72.38
71039;SHT30;58692;43.212;27.908;2023-03-14T00:35:02;5.13;72.34
71039;SHT30;58692;43.212;27.908;2023-03-14T00:37:28;5.14;72.38
71039;SHT30;58692;43.212;27.908;2023-03-14T00:39:54;5.03;72.48
71039;SHT30;58692;43.212;27.908;2023-03-14T00:42:19;4.99;72.53
71039;SHT30;58692;43.212;27.908;2023-03-14T00:44:45;4.81;72.69
71039;SHT30;58692;43.212;27.908;2023-03-14T00:47:11;4.86;72.71
71039;SHT30;58692;43.212;27.908;2023-03-14T00:49:36;4.80;72.93
71039;SHT30;58692;43.212;27.908;2023-03-14T00:52:02;4.86;72.70
71039;SHT30;58692;43.212;27.908;2023-03-14T00:54:27;4.89;72.78
71039;SHT30;58692;43.212;27.908;2023-03-14T00:56:53;4.91;72.49
71039;SHT30;58692;43.212;27.908;2023-03-14T00:59:18;4.94;72.48
71039;SHT30;58692;43.212;27.908;2023-03-14T01:01:44;4.96;72.63
71039;SHT30;58692;43.212;27.908;2023-03-14T01:04:10;4.93;72.70
71039;SHT30;58692;43.212;27.908;2023-03-14T01:06:35;4.96;72.83
71039;SHT30;58692;43.212;27.908;2023-03-14T01:09:01;4.94;72.44
71039;SHT30;58692;43.212;27.908;2023-03-14T01:11:29;4.91;72.41
71039;SHT30;58692;43.212;27.908;2023-03-14T01:13:55;4.97;72.33
71039;SHT30;58692;43.212;27.908;2023-03-14T01:16:22;4.96;72.32
71039;SHT30;58692;43.212;27.908;2023-03-14T01:18:48;4.96;72.63
71039;SHT30;58692;43.212;27.908;2023-03-14T01:21:31;4.93;72.83
71039;SHT30;58692;43.212;27.908;2023-03-14T01:23:58;4.99;72.76
71039;SHT30;58692;43.212;27.908;2023-03-14T01:26:26;5.03;72.57
71039;SHT30;58692;43.212;27.908;2023-03-14T01:28:54;5.04;72.44
71039;SHT30;58692;43.212;27.908;2023-03-14T01:31:20;5.03;72.35
71039;SHT30;58692;43.212;27.908;2023-03-14T01:33:46;5.04;72.36
71039;SHT30;58692;43.212;27.908;2023-03-14T01:36:13;5.09;72.26
71039;SHT30;58692;43.212;27.908;2023-03-14T01:38:39;5.10;72.11
71039;SHT30;58692;43.212;27.908;2023-03-14T01:41:05;5.06;72.11
71039;SHT30;58692;43.212;27.908;2023-03-14T01:43:31;5.07;72.21
71039;SHT30;58692;43.212;27.908;2023-03-14T01:48:25;5.03;72.47
71039;SHT30;58692;43.212;27.908;2023-03-14T01:50:52;4.97;73.09
71039;SHT30;58692;43.212;27.908;2023-03-14T01:53:18;4.81;73.68
71039;SHT30;58692;43.212;27.908;2023-03-14T01:55:47;4.55;74.40
71039;SHT30;58692;43.212;27.908;2023-03-14T01:58:14;4.45;74.69
71039;SHT30;58692;43.212;27.908;2023-03-14T02:00:41;4.50;74.49
71039;SHT30;58692;43.212;27.908;2023-03-14T02:03:12;4.39;75.34
71039;SHT30;58692;43.212;27.908;2023-03-14T02:05:41;4.41;75.43
71039;SHT30;58692;43.212;27.908;2023-03-14T02:08:10;4.41;75.77
71039;SHT30;58692;43.212;27.908;2023-03-14T02:10:40;4.42;76.01
71039;SHT30;58692;43.212;27.908;2023-03-14T02:13:06;4.36;76.33
71039;SHT30;58692;43.212;27.908;2023-03-14T02:15:32;4.34;76.50
71039;SHT30;58692;43.212;27.908;2023-03-14T02:17:58;4.24;76.98
71039;SHT30;58692;43.212;27.908;2023-03-14T02:22:50;4.21;77.22
71039;SHT30;58692;43.212;27.908;2023-03-14T02:28:06;4.22;77.34
71039;SHT30;58692;43.212;27.908;2023-03-14T02:30:32;4.18;77.51
71039;SHT30;58692;43.212;27.908;2023-03-14T02:33:03;4.22;77.52
71039;SHT30;58692;43.212;27.908;2023-03-14T02:35:34;4.15;77.84
71039;SHT30;58692;43.212;27.908;2023-03-14T02:38:17;4.09;78.14
71039;SHT30;58692;43.212;27.908;2023-03-14T02:40:46;4.04;78.23
71039;SHT30;58692;43.212;27.908;2023-03-14T02:43:12;3.97;78.40
71039;SHT30;58692;43.212;27.908;2023-03-14T02:45:43;3.90;78.25
71039;SHT30;58692;43.212;27.908;2023-03-14T02:48:14;3.85;78.13
71039;SHT30;58692;43.212;27.908;2023-03-14T02:50:41;3.70;77.75
71039;SHT30;58692;43.212;27.908;2023-03-14T02:53:07;3.75;77.24
71039;SHT30;58692;43.212;27.908;2023-03-14T02:55:33;3.67;77.27
71039;SHT30;58692;43.212;27.908;2023-03-14T02:57:58;3.67;77.29
71039;SHT30;58692;43.212;27.908;2023-03-14T03:00:24;3.67;77.10
71039;SHT30;58692;43.212;27.908;2023-03-14T03:02:50;3.67;77.15
71039;SHT30;58692;43.212;27.908;2023-03-14T03:05:16;3.54;77.17
71039;SHT30;58692;43.212;27.908;2023-03-14T03:07:41;3.71;76.85
71039;SHT30;58692;43.212;27.908;2023-03-14T03:10:07;3.71;76.83
71039;SHT30;58692;43.212;27.908;2023-03-14T03:12:33;3.77;76.66
71039;SHT30;58692;43.212;27.908;2023-03-14T03:14:58;3.74;76.53
71039;SHT30;58692;43.212;27.908;2023-03-14T03:17:24;3.71;76.93
71039;SHT30;58692;43.212;27.908;2023-03-14T03:19:49;3.77;76.61
71039;SHT30;58692;43.212;27.908;2023-03-14T03:22:15;3.77;76.45
71039;SHT30;58692;43.212;27.908;2023-03-14T03:24:40;3.78;76.41
71039;SHT30;58692;43.212;27.908;2023-03-14T03:27:06;3.78;76.51
71039;SHT30;58692;43.212;27.908;2023-03-14T03:29:31;3.80;76.34
71039;SHT30;58692;43.212;27.908;2023-03-14T03:31:57;3.84;76.31
71039;SHT30;58692;43.212;27.908;2023-03-14T03:34:22;3.87;76.24
71039;SHT30;58692;43.212;27.908;2023-03-14T03:36:48;3.75;76.39
71039;SHT30;58692;43.212;27.908;2023-03-14T03:39:13;3.75;76.53
71039;SHT30;58692;43.212;27.908;2023-03-14T03:41:39;3.74;76.31
71039;SHT30;58692;43.212;27.908;2023-03-14T03:44:04;3.75;76.32
71039;SHT30;58692;43.212;27.908;2023-03-14T03:46:31;3.78;76.17
71039;SHT30;58692;43.212;27.908;2023-03-14T03:48:59;3.66;76.24
71039;SHT30;58692;43.212;27.908;2023-03-14T03:51:25;3.54;76.54
71039;SHT30;58692;43.212;27.908;2023-03-14T03:53:50;3.52;76.69
71039;SHT30;58692;43.212;27.908;2023-03-14T03:56:16;3.52;76.58
71039;SHT30;58692;43.212;27.908;2023-03-14T03:58:43;3.52;76.63
71039;SHT30;58692;43.212;27.908;2023-03-14T04:01:09;3.46;76.82
71039;SHT30;58692;43.212;27.908;2023-03-14T04:03:35;3.54;76.69
71039;SHT30;58692;43.212;27.908;2023-03-14T04:06:04;3.40;76.95
71039;SHT30;58692;43.212;27.908;2023-03-14T04:08:30;3.53;76.71
71039;SHT30;58692;43.212;27.908;2023-03-14T04:10:58;3.57;76.69
71039;SHT30;58692;43.212;27.908;2023-03-14T04:13:24;3.64;76.57
71039;SHT30;58692;43.212;27.908;2023-03-14T04:15:51;3.54;76.90
71039;SHT30;58692;43.212;27.908;2023-03-14T04:18:16;3.52;77.30
71039;SHT30;58692;43.212;27.908;2023-03-14T04:20:42;3.44;77.41
71039;SHT30;58692;43.212;27.908;2023-03-14T04:23:10;3.46;77.30
71039;SHT30;58692;43.212;27.908;2023-03-14T04:25:36;3.47;77.37
71039;SHT30;58692;43.212;27.908;2023-03-14T04:28:02;3.42;77.83
71039;SHT30;58692;43.212;27.908;2023-03-14T04:30:29;3.43;77.57
71039;SHT30;58692;43.212;27.908;2023-03-14T04:32:55;3.42;77.70
71039;SHT30;58692;43.212;27.908;2023-03-14T04:35:20;3.53;77.63
71039;SHT30;58692;43.212;27.908;2023-03-14T04:37:46;3.54;77.66
71039;SHT30;58692;43.212;27.908;2023-03-14T04:40:14;3.69;77.11
71039;SHT30;58692;43.212;27.908;2023-03-14T04:42:41;3.53;77.48
71039;SHT30;58692;43.212;27.908;2023-03-14T04:45:08;3.69;77.01
71039;SHT30;58692;43.212;27.908;2023-03-14T04:47:34;3.66;76.89
71039;SHT30;58692;43.212;27.908;2023-03-14T04:49:59;3.71;76.95
71039;SHT30;58692;43.212;27.908;2023-03-14T04:52:30;3.75;76.69
71039;SHT30;58692;43.212;27.908;2023-03-14T04:54:56;3.81;76.42
71039;SHT30;58692;43.212;27.908;2023-03-14T04:57:21;3.77;76.57
71039;SHT30;58692;43.212;27.908;2023-03-14T04:59:48;3.99;76.03
71039;SHT30;58692;43.212;27.908;2023-03-14T05:02:16;4.24;75.11
71039;SHT30;58692;43.212;27.908;2023-03-14T05:04:41;4.49;74.32
71039;SHT30;58692;43.212;27.908;2023-03-14T05:07:08;4.80;73.41
71039;SHT30;58692;43.212;27.908;2023-03-14T05:09:33;4.99;72.79
71039;SHT30;58692;43.212;27.908;2023-03-14T05:11:59;5.10;71.98
71039;SHT30;58692;43.212;27.908;2023-03-14T05:14:27;5.44;71.19
71039;SHT30;58692;43.212;27.908;2023-03-14T05:16:53;5.44;70.91
71039;SHT30;58692;43.212;27.908;2023-03-14T05:19:19;5.41;70.58
71039;SHT30;58692;43.212;27.908;2023-03-14T05:21:44;5.78;69.93
71039;SHT30;58692;43.212;27.908;2023-03-14T05:24:10;6.17;68.98
71039;SHT30;58692;43.212;27.908;2023-03-14T05:26:37;6.32;68.47
71039;SHT30;58692;43.212;27.908;2023-03-14T05:29:04;6.50;68.19
71039;SHT30;58692;43.212;27.908;2023-03-14T05:31:36;6.77;67.32
71039;SHT30;58692;43.212;27.908;2023-03-14T05:34:01;7.14;66.27
71039;SHT30;58692;43.212;27.908;2023-03-14T05:36:27;7.14;66.13
71039;SHT30;58692;43.212;27.908;2023-03-14T05:39:00;7.62;65.08
71039;SHT30;58692;43.212;27.908;2023-03-14T05:41:29;7.86;64.39
71039;SHT30;58692;43.212;27.908;2023-03-14T05:43:55;8.31;63.15
71039;SHT30;58692;43.212;27.908;2023-03-14T05:46:21;8.55;62.17
71039;SHT30;58692;43.212;27.908;2023-03-14T05:48:46;8.79;61.58
71039;SHT30;58692;43.212;27.908;2023-03-14T05:51:12;9.20;60.68
71039;SHT30;58692;43.212;27.908;2023-03-14T05:53:43;9.46;59.98
71039;SHT30;58692;43.212;27.908;2023-03-14T05:56:09;9.44;59.69
71039;SHT30;58692;43.212;27.908;2023-03-14T05:58:34;10.09;58.10
71039;SHT30;58692;43.212;27.908;2023-03-14T06:01:02;10.12;57.57
71039;SHT30;58692;43.212;27.908;2023-03-14T06:03:28;10.25;56.99
71039;SHT30;58692;43.212;27.908;2023-03-14T06:05:54;10.57;55.99
71039;SHT30;58692;43.212;27.908;2023-03-14T06:08:24;10.56;56.28
71039;SHT30;58692;43.212;27.908;2023-03-14T06:10:50;10.76;55.83
71039;SHT30;58692;43.212;27.908;2023-03-14T06:13:16;10.84;55.62
71039;SHT30;58692;43.212;27.908;2023-03-14T06:15:42;11.17;54.84
71039;SHT30;58692;43.212;27.908;2023-03-14T06:18:07;10.89;55.62
71039;SHT30;58692;43.212;27.908;2023-03-14T06:20:36;11.62;54.33
71039;SHT30;58692;43.212;27.908;2023-03-14T06:23:07;12.26;52.95
71039;SHT30;58692;43.212;27.908;2023-03-14T06:25:36;12.28;53.05
71039;SHT30;58692;43.212;27.908;2023-03-14T06:28:04;12.88;51.60
71039;SHT30;58692;43.212;27.908;2023-03-14T06:30:30;13.38;50.59
71039;SHT30;58692;43.212;27.908;2023-03-14T06:32:56;13.91;49.27
71039;SHT30;58692;43.212;27.908;2023-03-14T06:35:24;13.86;48.74
71039;SHT30;58692;43.212;27.908;2023-03-14T06:37:49;14.28;48.62
71039;SHT30;58692;43.212;27.908;2023-03-14T06:40:15;14.67;47.82
71039;SHT30;58692;43.212;27.908;2023-03-14T06:42:44;15.02;46.75
71039;SHT30;58692;43.212;27.908;2023-03-14T06:45:10;14.51;47.34
71039;SHT30;58692;43.212;27.908;2023-03-14T06:47:38;15.28;46.38
71039;SHT30;58692;43.212;27.908;2023-03-14T06:50:07;15.49;46.37
71039;SHT30;58692;43.212;27.908;2023-03-14T06:52:35;15.25;46.84
71039;SHT30;58692;43.212;27.908;2023-03-14T06:55:30;14.87;47.18
71039;SHT30;58692;43.212;27.908;2023-03-14T06:57:58;15.38;46.29
71039;SHT30;58692;43.212;27.908;2023-03-14T07:00:23;16.07;45.15
71039;SHT30;58692;43.212;27.908;2023-03-14T07:02:50;16.21;44.44
71039;SHT30;58692;43.212;27.908;2023-03-14T07:05:15;16.11;45.16
71039;SHT30;58692;43.212;27.908;2023-03-14T07:07:41;15.52;45.31
71039;SHT30;58692;43.212;27.908;2023-03-14T07:10:07;16.11;45.24
71039;SHT30;58692;43.212;27.908;2023-03-14T07:12:34;16.10;45.07
71039;SHT30;58692;43.212;27.908;2023-03-14T07:14:59;15.67;45.96
71039;SHT30;58692;43.212;27.908;2023-03-14T07:17:25;14.77;47.81
71039;SHT30;58692;43.212;27.908;2023-03-14T07:19:54;14.37;49.17
71039;SHT30;58692;43.212;27.908;2023-03-14T07:22:20;14.68;48.56
71039;SHT30;58692;43.212;27.908;2023-03-14T07:24:45;15.12;47.81
71039;SHT30;58692;43.212;27.908;2023-03-14T07:27:11;14.51;48.89
71039;SHT30;58692;43.212;27.908;2023-03-14T07:29:36;14.87;48.07
71039;SHT30;58692;43.212;27.908;2023-03-14T07:32:02;13.82;50.67
71039;SHT30;58692;43.212;27.908;2023-03-14T07:34:28;13.76;51.16
71039;SHT30;58692;43.212;27.908;2023-03-14T07:36:53;13.25;52.70
71039;SHT30;58692;43.212;27.908;2023-03-14T07:39:22;13.38;52.26
71039;SHT30;58692;43.212;27.908;2023-03-14T07:41:48;13.67;51.35
71039;SHT30;58692;43.212;27.908;2023-03-14T07:44:14;14.27;50.48
71039;SHT30;58692;43.212;27.908;2023-03-14T07:46:40;14.54;50.13
71039;SHT30;58692;43.212;27.908;2023-03-14T07:49:05;15.22;47.85
71039;SHT30;58692;43.212;27.908;2023-03-14T07:51:31;14.13;50.48
71039;SHT30;58692;43.212;27.908;2023-03-14T07:53:56;14.88;49.25
71039;SHT30;58692;43.212;27.908;2023-03-14T07:56:51;14.88;49.07
71039;SHT30;58692;43.212;27.908;2023-03-14T07:59:40;15.39;48.71
71039;SHT30;58692;43.212;27.908;2023-03-14T08:02:31;14.18;51.11
71039;SHT30;58692;43.212;27.908;2023-03-14T08:04:57;14.52;50.00
71039;SHT30;58692;43.212;27.908;2023-03-14T08:07:24;14.17;50.77
71039;SHT30;58692;43.212;27.908;2023-03-14T08:09:57;14.40;51.02
71039;SHT30;58692;43.212;27.908;2023-03-14T08:12:23;14.42;51.25
71039;SHT30;58692;43.212;27.908;2023-03-14T08:14:52;14.21;51.28
71039;SHT30;58692;43.212;27.908;2023-03-14T08:17:27;15.29;49.14
71039;SHT30;58692;43.212;27.908;2023-03-14T08:20:05;16.44;46.26
71039;SHT30;58692;43.212;27.908;2023-03-14T08:22:33;15.02;49.34
71039;SHT30;58692;43.212;27.908;2023-03-14T08:24:59;14.96;50.25
71039;SHT30;58692;43.212;27.908;2023-03-14T08:27:25;15.29;49.16
71039;SHT30;58692;43.212;27.908;2023-03-14T08:29:50;15.52;49.07
71039;SHT30;58692;43.212;27.908;2023-03-14T08:32:16;15.43;48.94
71039;SHT30;58692;43.212;27.908;2023-03-14T08:34:41;15.23;49.63
71039;SHT30;58692;43.212;27.908;2023-03-14T08:37:07;14.13;51.82
71039;SHT30;58692;43.212;27.908;2023-03-14T08:39:34;13.95;53.07
71039;SHT30;58692;43.212;27.908;2023-03-14T08:42:00;14.41;51.96
71039;SHT30;58692;43.212;27.908;2023-03-14T08:44:26;14.51;51.98
71039;SHT30;58692;43.212;27.908;2023-03-14T08:46:51;14.36;52.36
71039;SHT30;58692;43.212;27.908;2023-03-14T08:49:18;14.17;52.53
71039;SHT30;58692;43.212;27.908;2023-03-14T08:51:46;13.82;53.57
71039;SHT30;58692;43.212;27.908;2023-03-14T08:54:15;13.59;54.37
71039;SHT30;58692;43.212;27.908;2023-03-14T08:56:44;14.75;51.85
71039;SHT30;58692;43.212;27.908;2023-03-14T08:59:12;14.09;53.06
71039;SHT30;58692;43.212;27.908;2023-03-14T09:01:38;14.16;52.81
71039;SHT30;58692;43.212;27.908;2023-03-14T09:04:04;13.35;54.16
71039;SHT30;58692;43.212;27.908;2023-03-14T09:06:29;13.75;54.32
71039;SHT30;58692;43.212;27.908;2023-03-14T09:08:56;13.51;55.61
71039;SHT30;58692;43.212;27.908;2023-03-14T09:11:21;13.10;55.61
71039;SHT30;58692;43.212;27.908;2023-03-14T09:13:47;13.07;56.49
71039;SHT30;58692;43.212;27.908;2023-03-14T09:16:14;12.88;56.49
71039;SHT30;58692;43.212;27.908;2023-03-14T09:18:40;12.85;56.79
71039;SHT30;58692;43.212;27.908;2023-03-14T09:21:06;12.93;57.16
71039;SHT30;58692;43.212;27.908;2023-03-14T09:23:32;14.00;54.20
71039;SHT30;58692;43.212;27.908;2023-03-14T09:26:01;13.21;55.66
71039;SHT30;58692;43.212;27.908;2023-03-14T09:28:36;13.15;56.30
71039;SHT30;58692;43.212;27.908;2023-03-14T09:31:14;13.32;55.84
71039;SHT30;58692;43.212;27.908;2023-03-14T09:33:53;13.59;55.28
71039;SHT30;58692;43.212;27.908;2023-03-14T09:36:29;13.45;55.25
71039;SHT30;58692;43.212;27.908;2023-03-14T09:38:55;13.69;54.86
71039;SHT30;58692;43.212;27.908;2023-03-14T09:41:50;13.69;54.62
71039;SHT30;58692;43.212;27.908;2023-03-14T09:44:21;13.79;54.45
71039;SHT30;58692;43.212;27.908;2023-03-14T09:46:56;14.91;52.39
71039;SHT30;58692;43.212;27.908;2023-03-14T09:49:31;14.54;52.41
71039;SHT30;58692;43.212;27.908;2023-03-14T09:52:02;14.47;52.14
71039;SHT30;58692;43.212;27.908;2023-03-14T09:56:59;14.75;52.14
71039;SHT30;58692;43.212;27.908;2023-03-14T09:59:29;14.61;52.36
71039;SHT30;58692;43.212;27.908;2023-03-14T10:02:00;14.88;51.39
71039;SHT30;58692;43.212;27.908;2023-03-14T10:04:30;14.68;52.32
71039;SHT30;58692;43.212;27.908;2023-03-14T10:06:57;15.77;49.80
71039;SHT30;58692;43.212;27.908;2023-03-14T10:09:23;16.07;48.91
71039;SHT30;58692;43.212;27.908;2023-03-14T10:11:55;15.44;50.79
71039;SHT30;58692;43.212;27.908;2023-03-14T10:14:32;15.64;50.68
71039;SHT30;58692;43.212;27.908;2023-03-14T10:17:09;15.11;51.18
71039;SHT30;58692;43.212;27.908;2023-03-14T10:19:35;14.42;52.76
71039;SHT30;58692;43.212;27.908;2023-03-14T10:25:26;14.31;53.28
71039;SHT30;58692;43.212;27.908;2023-03-14T10:27:53;15.22;51.31
71039;SHT30;58692;43.212;27.908;2023-03-14T10:30:38;14.60;52.17
71039;SHT30;58692;43.212;27.908;2023-03-14T10:33:21;14.93;52.00
71039;SHT30;58692;43.212;27.908;2023-03-14T10:36:19;14.54;52.02
71039;SHT30;58692;43.212;27.908;2023-03-14T10:38:46;14.98;52.15
71039;SHT30;58692;43.212;27.908;2023-03-14T10:41:19;15.32;51.48
71039;SHT30;58692;43.212;27.908;2023-03-14T10:43:50;15.83;49.87
71039;SHT30;58692;43.212;27.908;2023-03-14T10:46:18;14.64;52.11
71039;SHT30;58692;43.212;27.908;2023-03-14T10:48:44;14.14;52.88
71039;SHT30;58692;43.212;27.908;2023-03-14T10:51:18;14.40;52.88
71039;SHT30;58692;43.212;27.908;2023-03-14T10:56:33;14.13;53.61
71039;SHT30;58692;43.212;27.908;2023-03-14T10:58:59;13.77;53.92
71039;SHT30;58692;43.212;27.908;2023-03-14T11:01:32;14.00;53.84
71039;SHT30;58692;43.212;27.908;2023-03-14T11:06:54;13.59;54.21
71039;SHT30;58692;43.212;27.908;2023-03-14T11:09:25;14.42;52.12
71039;SHT30;58692;43.212;27.908;2023-03-14T11:12:03;14.65;50.66
71039;SHT30;58692;43.212;27.908;2023-03-14T11:14:38;14.82;50.65
71039;SHT30;58692;43.212;27.908;2023-03-14T11:17:18;15.22;50.74
71039;SHT30;58692;43.212;27.908;2023-03-14T11:33:17;13.90;54.14
71039;SHT30;58692;43.212;27.908;2023-03-14T11:35:53;13.69;54.52
71039;SHT30;58692;43.212;27.908;2023-03-14T11:38:42;13.83;54.46
71039;SHT30;58692;43.212;27.908;2023-03-14T11:41:20;13.99;53.67
71039;SHT30;58692;43.212;27.908;2023-03-14T11:43:56;13.95;54.25
71039;SHT30;58692;43.212;27.908;2023-03-14T11:46:30;13.65;55.70
71039;SHT30;58692;43.212;27.908;2023-03-14T11:49:06;14.05;54.54
71039;SHT30;58692;43.212;27.908;2023-03-14T11:51:41;13.89;53.94
71039;SHT30;58692;43.212;27.908;2023-03-14T11:57:13;14.65;52.42
71039;SHT30;58692;43.212;27.908;2023-03-14T12:00:04;14.75;52.00
71039;SHT30;58692;43.212;27.908;2023-03-14T12:08:33;13.97;54.13
71039;SHT30;58692;43.212;27.908;2023-03-14T12:11:15;13.29;54.85
71039;SHT30;58692;43.212;27.908;2023-03-14T12:13:46;13.08;57.09
71039;SHT30;58692;43.212;27.908;2023-03-14T12:16:35;13.02;54.49
71039;SHT30;58692;43.212;27.908;2023-03-14T12:21:51;13.86;54.52
71039;SHT30;58692;43.212;27.908;2023-03-14T12:24:22;14.45;53.09
71039;SHT30;58692;43.212;27.908;2023-03-14T12:26:53;14.06;53.71
71039;SHT30;58692;43.212;27.908;2023-03-14T12:29:20;14.33;53.44
71039;SHT30;58692;43.212;27.908;2023-03-14T12:31:48;14.03;54.20
71039;SHT30;58692;43.212;27.908;2023-03-14T12:36:58;13.54;55.91
71039;SHT30;58692;43.212;27.908;2023-03-14T12:42:15;13.22;57.22
71039;SHT30;58692;43.212;27.908;2023-03-14T12:44:48;12.87;57.36
71039;SHT30;58692;43.212;27.908;2023-03-14T12:50:15;12.56;58.03
71039;SHT30;58692;43.212;27.908;2023-03-14T12:52:54;12.06;60.24
71039;SHT30;58692;43.212;27.908;2023-03-14T12:55:35;12.18;59.90
71039;SHT30;58692;43.212;27.908;2023-03-14T12:58:20;12.02;60.56
71039;SHT30;58692;43.212;27.908;2023-03-14T13:00:56;11.90;60.41
71039;SHT30;58692;43.212;27.908;2023-03-14T13:03:24;11.20;62.51
71039;SHT30;58692;43.212;27.908;2023-03-14T13:05:59;10.66;64.55
71039;SHT30;58692;43.212;27.908;2023-03-14T13:08:37;10.23;66.11
71039;SHT30;58692;43.212;27.908;2023-03-14T13:11:07;9.95;67.17
71039;SHT30;58692;43.212;27.908;2023-03-14T13:13:37;9.75;68.33
71039;SHT30;58692;43.212;27.908;2023-03-14T13:16:09;9.70;68.33
71039;SHT30;58692;43.212;27.908;2023-03-14T13:18:39;10.11;67.42
71039;SHT30;58692;43.212;27.908;2023-03-14T13:21:18;9.82;67.79
71039;SHT30;58692;43.212;27.908;2023-03-14T13:24:03;9.67;68.85
71039;SHT30;58692;43.212;27.908;2023-03-14T13:26:39;9.60;69.74
71039;SHT30;58692;43.212;27.908;2023-03-14T13:31:49;9.67;69.23
71039;SHT30;58692;43.212;27.908;2023-03-14T13:34:15;9.81;68.89
71039;SHT30;58692;43.212;27.908;2023-03-14T13:36:40;9.55;69.58
71039;SHT30;58692;43.212;27.908;2023-03-14T13:39:13;9.50;70.30
71039;SHT30;58692;43.212;27.908;2023-03-14T13:41:40;9.70;69.85
71039;SHT30;58692;43.212;27.908;2023-03-14T13:44:13;9.61;69.59
71039;SHT30;58692;43.212;27.908;2023-03-14T13:46:39;9.41;70.60
71039;SHT30;58692;43.212;27.908;2023-03-14T13:49:09;9.47;69.70
71039;SHT30;58692;43.212;27.908;2023-03-14T13:51:39;9.26;70.87
71039;SHT30;58692;43.212;27.908;2023-03-14T13:54:14;9.12;71.29
71039;SHT30;58692;43.212;27.908;2023-03-14T13:56:40;9.26;70.43
71039;SHT30;58692;43.212;27.908;2023-03-14T13:59:22;9.55;69.72
71039;SHT30;58692;43.212;27.908;2023-03-14T14:01:48;9.54;69.64
71039;SHT30;58692;43.212;27.908;2023-03-14T14:04:18;9.57;69.78
71039;SHT30;58692;43.212;27.908;2023-03-14T14:06:50;9.50;70.22
71039;SHT30;58692;43.212;27.908;2023-03-14T14:09:41;9.44;70.99
71039;SHT30;58692;43.212;27.908;2023-03-14T14:12:28;9.16;71.68
71039;SHT30;58692;43.212;27.908;2023-03-14T14:15:04;9.17;72.06
71039;SHT30;58692;43.212;27.908;2023-03-14T14:17:36;9.17;71.72
71039;SHT30;58692;43.212;27.908;2023-03-14T14:20:06;9.02;72.59
71039;SHT30;58692;43.212;27.908;2023-03-14T14:22:33;8.85;73.00
71039;SHT30;58692;43.212;27.908;2023-03-14T14:25:00;8.97;72.73
71039;SHT30;58692;43.212;27.908;2023-03-14T14:27:37;8.92;72.84
71039;SHT30;58692;43.212;27.908;2023-03-14T14:30:05;8.88;73.46
71039;SHT30;58692;43.212;27.908;2023-03-14T14:32:37;8.80;73.99
71039;SHT30;58692;43.212;27.908;2023-03-14T14:35:04;9.12;73.20
71039;SHT30;58692;43.212;27.908;2023-03-14T14:37:34;8.86;73.44
71039;SHT30;58692;43.212;27.908;2023-03-14T14:40:08;8.80;73.95
71039;SHT30;58692;43.212;27.908;2023-03-14T14:42:40;8.92;73.69
71039;SHT30;58692;43.212;27.908;2023-03-14T14:45:10;9.12;72.46
71039;SHT30;58692;43.212;27.908;2023-03-14T14:50:29;8.75;74.08
71039;SHT30;58692;43.212;27.908;2023-03-14T14:52:58;8.58;74.65
71039;SHT30;58692;43.212;27.908;2023-03-14T14:55:31;8.79;73.97
71039;SHT30;58692;43.212;27.908;2023-03-14T14:57:58;8.97;73.07
71039;SHT30;58692;43.212;27.908;2023-03-14T15:00:39;8.93;73.23
71039;SHT30;58692;43.212;27.908;2023-03-14T15:03:13;8.95;73.30
71039;SHT30;58692;43.212;27.908;2023-03-14T15:05:40;8.89;73.86
71039;SHT30;58692;43.212;27.908;2023-03-14T15:08:10;8.82;74.34
71039;SHT30;58692;43.212;27.908;2023-03-14T15:10:36;8.90;73.81
71039;SHT30;58692;43.212;27.908;2023-03-14T15:13:04;8.99;73.68
71039;SHT30;58692;43.212;27.908;2023-03-14T15:15:33;8.62;74.48
71039;SHT30;58692;43.212;27.908;2023-03-14T15:18:00;8.72;74.12
71039;SHT30;58692;43.212;27.908;2023-03-14T15:20:25;8.86;73.89
71039;SHT30;58692;43.212;27.908;2023-03-14T15:22:51;8.73;74.11
71039;SHT30;58692;43.212;27.908;2023-03-14T15:25:17;8.76;74.35
71039;SHT30;58692;43.212;27.908;2023-03-14T15:27:42;8.75;74.76
71039;SHT30;58692;43.212;27.908;2023-03-14T15:30:12;8.76;74.73
71039;SHT30;58692;43.212;27.908;2023-03-14T15:32:38;8.59;75.06
71039;SHT30;58692;43.212;27.908;2023-03-14T15:35:03;8.65;74.75
71039;SHT30;58692;43.212;27.908;2023-03-14T15:37:30;8.65;74.45
71039;SHT30;58692;43.212;27.908;2023-03-14T15:39:56;8.51;73.69
71039;SHT30;58692;43.212;27.908;2023-03-14T15:42:23;8.64;73.97
71039;SHT30;58692;43.212;27.908;2023-03-14T15:44:49;8.79;73.94
71039;SHT30;58692;43.212;27.908;2023-03-14T15:47:15;8.80;73.73
71039;SHT30;58692;43.212;27.908;2023-03-14T15:49:41;8.66;74.75
71039;SHT30;58692;43.212;27.908;2023-03-14T15:52:07;8.35;75.23
71039;SHT30;58692;43.212;27.908;2023-03-14T15:54:33;8.30;75.06
71039;SHT30;58692;43.212;27.908;2023-03-14T15:57:02;8.46;74.98
71039;SHT30;58692;43.212;27.908;2023-03-14T15:59:42;8.62;74.33
71039;SHT30;58692;43.212;27.908;2023-03-14T16:02:09;8.40;74.82
71039;SHT30;58692;43.212;27.908;2023-03-14T16:04:35;8.28;75.03
71039;SHT30;58692;43.212;27.908;2023-03-14T16:07:01;8.24;75.44
71039;SHT30;58692;43.212;27.908;2023-03-14T16:09:26;8.20;76.23
71039;SHT30;58692;43.212;27.908;2023-03-14T16:11:53;8.21;75.92
71039;SHT30;58692;43.212;27.908;2023-03-14T16:14:18;8.10;75.99
71039;SHT30;58692;43.212;27.908;2023-03-14T16:16:44;8.11;75.64
71039;SHT30;58692;43.212;27.908;2023-03-14T16:19:10;8.18;75.70
71039;SHT30;58692;43.212;27.908;2023-03-14T16:21:35;8.24;75.15
71039;SHT30;58692;43.212;27.908;2023-03-14T16:24:03;8.31;75.23
71039;SHT30;58692;43.212;27.908;2023-03-14T16:26:31;8.30;75.70
71039;SHT30;58692;43.212;27.908;2023-03-14T16:28:59;8.13;76.17
71039;SHT30;58692;43.212;27.908;2023-03-14T16:31:26;8.15;76.45
71039;SHT30;58692;43.212;27.908;2023-03-14T16:33:51;8.27;75.76